Time;durP1;ratioP1;P1;durP2;ratioP2;P2;SDS_P1;SDS_P2;PMS_P1;PMS_P2;Temp;Humidity;BMP_temperature;BMP_pressure;BME280_temperature;BME280_humidity;BME280_pressure;Samples;Min_cycle;Max_cycle;Signal;HPM_P1;HPM_P2
2021/03/29 00:00:31;;;;;;;8.70;4.43;;;4.30;89.70;;;;;;5012475;28;21024;-62
2021/03/29 00:02:59;;;;;;;7.10;4.13;;;4.20;89.80;;;;;;5007369;28;20793;-61
2021/03/29 00:05:26;;;;;;;9.10;4.60;;;4.20;89.80;;;;;;5017609;28;20466;-62
2021/03/29 00:07:56;;;;;;;8.17;4.90;;;4.20;89.80;;;;;;5020629;28;20495;-62
2021/03/29 00:10:23;;;;;;;6.30;4.07;;;4.20;89.70;;;;;;5013563;28;20563;-62
2021/03/29 00:12:51;;;;;;;4.80;4.30;;;4.20;89.80;;;;;;5017823;28;20428;-63
2021/03/29 00:15:19;;;;;;;6.43;3.93;;;4.10;90.00;;;;;;5015875;28;20439;-62
2021/03/29 00:17:45;;;;;;;4.83;3.83;;;4.10;90.10;;;;;;5016845;28;20429;-61
2021/03/29 00:20:17;;;;;;;7.40;4.60;;;4.10;90.20;;;;;;5015377;28;20439;-61
2021/03/29 00:22:43;;;;;;;9.00;4.50;;;4.20;90.30;;;;;;5015492;28;20208;-61
2021/03/29 00:25:17;;;;;;;10.90;5.00;;;4.20;90.10;;;;;;5012291;28;20451;-61
2021/03/29 00:27:43;;;;;;;7.53;4.50;;;4.10;90.10;;;;;;5012442;28;20463;-62
2021/03/29 00:30:18;;;;;;;7.77;4.67;;;4.00;90.40;;;;;;5010002;28;20788;-61
2021/03/29 00:32:44;;;;;;;5.60;4.03;;;4.00;90.60;;;;;;5020553;28;20484;-62
2021/03/29 00:35:13;;;;;;;6.37;3.80;;;4.00;90.70;;;;;;5014596;28;20808;-62
2021/03/29 00:37:41;;;;;;;7.73;4.33;;;4.00;90.50;;;;;;5013875;28;20524;-62
2021/03/29 00:40:08;;;;;;;6.00;4.00;;;3.90;90.50;;;;;;5010081;28;20533;-62
2021/03/29 00:42:35;;;;;;;8.53;4.47;;;3.90;90.50;;;;;;5015255;28;20435;-62
2021/03/29 00:45:01;;;;;;;7.33;3.90;;;3.90;90.50;;;;;;5016234;28;20461;-62
2021/03/29 00:47:27;;;;;;;7.80;4.53;;;3.80;90.40;;;;;;5018068;28;20422;-61
2021/03/29 00:49:57;;;;;;;10.33;3.93;;;3.80;90.70;;;;;;5017262;28;20455;-61
2021/03/29 00:52:24;;;;;;;6.90;4.50;;;3.70;91.00;;;;;;5011211;28;20875;-62
2021/03/29 00:54:50;;;;;;;14.40;4.97;;;3.70;91.20;;;;;;5012241;28;20449;-61
2021/03/29 00:57:18;;;;;;;6.33;4.30;;;3.60;91.30;;;;;;5017203;28;20489;-61
2021/03/29 00:59:45;;;;;;;9.47;4.70;;;3.60;91.40;;;;;;5019130;28;20462;-62
2021/03/29 01:02:10;;;;;;;6.60;4.10;;;3.50;91.50;;;;;;5018034;28;20445;-61
2021/03/29 01:04:36;;;;;;;7.00;4.53;;;3.50;91.70;;;;;;5013689;28;20456;-60
2021/03/29 01:07:03;;;;;;;8.53;4.93;;;3.40;91.90;;;;;;5014294;28;20242;-61
2021/03/29 01:09:29;;;;;;;6.40;4.37;;;3.40;92.00;;;;;;5013014;28;20447;-61
2021/03/29 01:12:02;;;;;;;8.10;3.83;;;3.40;92.20;;;;;;5021791;28;20430;-61
2021/03/29 01:14:32;;;;;;;8.00;4.47;;;3.40;92.30;;;;;;5009459;28;21111;-61
2021/03/29 01:17:21;;;;;;;6.93;4.10;;;3.30;92.40;;;;;;5024561;28;20430;-61
2021/03/29 01:20:01;;;;;;;7.50;4.13;;;3.30;92.80;;;;;;5013899;28;20449;-61
2021/03/29 01:22:35;;;;;;;6.33;3.93;;;3.20;93.10;;;;;;5020620;28;20413;-61
2021/03/29 01:25:24;;;;;;;5.53;3.80;;;3.20;93.20;;;;;;5017066;28;20492;-62
2021/03/29 01:28:00;;;;;;;6.80;4.03;;;3.20;93.10;;;;;;5013765;28;20451;-61
2021/03/29 01:30:30;;;;;;;8.03;4.63;;;3.20;93.10;;;;;;5017740;28;20499;-62
2021/03/29 01:32:57;;;;;;;8.50;5.03;;;3.20;93.00;;;;;;5021221;28;20940;-61
2021/03/29 01:35:28;;;;;;;6.63;4.27;;;3.20;93.00;;;;;;5021465;28;20755;-62
2021/03/29 01:37:55;;;;;;;8.00;4.37;;;3.20;93.10;;;;;;5026360;28;20415;-62
2021/03/29 01:40:22;;;;;;;6.80;4.50;;;3.10;93.00;;;;;;5031944;28;20438;-62
2021/03/29 01:42:49;;;;;;;7.30;4.40;;;3.10;93.00;;;;;;5028800;28;20434;-62
2021/03/29 01:45:16;;;;;;;10.50;4.53;;;3.10;93.20;;;;;;5025480;28;20690;-63
2021/03/29 01:47:43;;;;;;;7.93;4.40;;;3.00;93.30;;;;;;5030117;28;20436;-63
2021/03/29 01:50:11;;;;;;;8.50;4.30;;;3.00;93.40;;;;;;5032339;28;20550;-62
2021/03/29 01:52:37;;;;;;;7.70;4.47;;;3.00;93.60;;;;;;5017913;28;20427;-61
2021/03/29 01:55:06;;;;;;;8.23;4.60;;;3.00;93.60;;;;;;5006567;28;20727;-61
2021/03/29 01:57:32;;;;;;;8.03;3.97;;;2.90;93.60;;;;;;5004024;28;20433;-61
2021/03/29 01:59:58;;;;;;;7.37;4.00;;;2.90;93.70;;;;;;4997402;28;20479;-61
2021/03/29 02:02:24;;;;;;;9.37;4.03;;;2.90;93.60;;;;;;5004685;28;20748;-61
2021/03/29 02:04:50;;;;;;;8.30;4.43;;;2.90;93.70;;;;;;5003909;28;20282;-62
2021/03/29 02:07:18;;;;;;;6.30;4.40;;;2.80;93.70;;;;;;5008277;28;20792;-61
2021/03/29 02:09:45;;;;;;;6.70;4.40;;;2.80;93.80;;;;;;5011369;28;20468;-61
2021/03/29 02:12:11;;;;;;;10.07;4.27;;;2.70;93.90;;;;;;5012287;28;20430;-61
2021/03/29 02:14:38;;;;;;;10.20;4.77;;;2.70;94.20;;;;;;5003990;28;20433;-62
2021/03/29 02:17:09;;;;;;;6.80;4.57;;;2.70;93.90;;;;;;5008419;28;20443;-61
2021/03/29 02:19:37;;;;;;;6.03;4.13;;;2.60;94.00;;;;;;5007232;28;20501;-60
2021/03/29 02:22:04;;;;;;;10.00;4.60;;;2.60;94.10;;;;;;5007204;28;20443;-62
2021/03/29 02:24:30;;;;;;;7.20;5.13;;;2.60;94.40;;;;;;5000936;28;20645;-62
2021/03/29 02:26:58;;;;;;;8.20;4.60;;;2.60;94.60;;;;;;5005584;28;20453;-61
2021/03/29 02:29:27;;;;;;;7.40;4.57;;;2.50;94.70;;;;;;5009617;28;20458;-62
2021/03/29 02:31:55;;;;;;;7.67;4.50;;;2.50;94.70;;;;;;5005953;28;20443;-62
2021/03/29 02:34:23;;;;;;;9.63;4.70;;;2.50;94.70;;;;;;4993202;28;20529;-61
2021/03/29 02:36:48;;;;;;;9.57;4.40;;;2.50;94.60;;;;;;5006644;28;20803;-61
2021/03/29 02:39:18;;;;;;;8.10;4.33;;;2.50;94.60;;;;;;5009752;28;20466;-61
2021/03/29 02:41:49;;;;;;;9.07;4.90;;;2.50;94.50;;;;;;5003057;28;20251;-61
2021/03/29 02:44:16;;;;;;;19.03;5.33;;;2.50;94.50;;;;;;5010830;28;20552;-61
2021/03/29 02:46:43;;;;;;;9.63;4.80;;;2.50;94.40;;;;;;5004894;28;20469;-61
2021/03/29 02:49:09;;;;;;;10.43;5.50;;;2.50;94.50;;;;;;5008500;28;20419;-61
2021/03/29 02:51:39;;;;;;;8.23;4.60;;;2.50;94.40;;;;;;5005006;28;20436;-61
2021/03/29 02:54:07;;;;;;;14.03;4.80;;;2.50;94.20;;;;;;4997222;28;20421;-62
2021/03/29 02:56:39;;;;;;;12.30;4.80;;;2.50;94.30;;;;;;5007297;28;20994;-61
2021/03/29 02:59:09;;;;;;;15.83;4.60;;;2.40;94.30;;;;;;5008664;28;20499;-62
2021/03/29 03:01:38;;;;;;;11.27;5.23;;;2.40;94.30;;;;;;5005124;28;20456;-61
2021/03/29 03:04:06;;;;;;;6.43;4.70;;;2.40;94.50;;;;;;5008778;28;20471;-61
2021/03/29 03:06:32;;;;;;;9.30;5.30;;;2.30;94.70;;;;;;5009391;28;20530;-61
2021/03/29 03:09:01;;;;;;;6.93;4.67;;;2.30;94.80;;;;;;5009416;28;20843;-61
2021/03/29 03:11:27;;;;;;;14.10;5.50;;;2.30;95.00;;;;;;4998454;28;20553;-61
2021/03/29 03:13:54;;;;;;;17.17;5.90;;;2.20;95.00;;;;;;5009980;28;20423;-61
2021/03/29 03:16:19;;;;;;;12.67;5.47;;;2.20;95.10;;;;;;5008137;28;20979;-61
2021/03/29 03:18:50;;;;;;;9.23;5.20;;;2.10;95.20;;;;;;5005135;28;20487;-61
2021/03/29 03:21:18;;;;;;;13.20;5.47;;;2.10;95.40;;;;;;5007564;28;20202;-61
2021/03/29 03:23:51;;;;;;;10.07;5.27;;;2.10;95.60;;;;;;5013074;28;20456;-62
2021/03/29 03:26:17;;;;;;;9.70;5.57;;;2.00;95.60;;;;;;5003899;28;20425;-64
2021/03/29 03:28:42;;;;;;;12.43;5.40;;;2.00;95.80;;;;;;5005245;28;20497;-62
2021/03/29 03:31:08;;;;;;;9.60;5.00;;;2.00;96.00;;;;;;5007516;28;20200;-61
2021/03/29 03:33:34;;;;;;;10.60;5.27;;;2.00;95.90;;;;;;5005558;28;20418;-61
2021/03/29 03:35:59;;;;;;;10.00;5.43;;;2.00;95.90;;;;;;5000976;28;20644;-62
2021/03/29 03:38:28;;;;;;;12.80;5.57;;;2.00;96.00;;;;;;5007039;28;20179;-62
2021/03/29 03:40:58;;;;;;;14.43;5.97;;;2.00;96.00;;;;;;5002691;28;20201;-61
2021/03/29 03:43:27;;;;;;;9.00;4.87;;;2.00;96.00;;;;;;5005287;28;20431;-62
2021/03/29 03:46:02;;;;;;;10.67;5.60;;;2.00;95.90;;;;;;5006195;28;20438;-61
2021/03/29 03:48:29;;;;;;;5.97;4.80;;;1.90;95.90;;;;;;4995390;28;20440;-61
2021/03/29 03:50:57;;;;;;;9.63;5.23;;;1.90;96.00;;;;;;5015543;28;20467;-61
2021/03/29 03:53:25;;;;;;;8.30;5.50;;;1.90;95.90;;;;;;5009959;28;20441;-61
2021/03/29 03:55:56;;;;;;;8.70;4.60;;;1.90;95.90;;;;;;5003240;28;20936;-61
2021/03/29 03:58:23;;;;;;;7.97;5.37;;;1.80;95.90;;;;;;5010854;28;20421;-62
2021/03/29 04:00:50;;;;;;;10.13;5.70;;;1.80;95.90;;;;;;5004309;28;20748;-61
2021/03/29 04:03:15;;;;;;;14.10;5.63;;;1.80;96.00;;;;;;4996181;28;20440;-61
2021/03/29 04:05:41;;;;;;;10.90;5.60;;;1.80;96.00;;;;;;4997946;28;20474;-61
2021/03/29 04:08:11;;;;;;;9.00;5.40;;;1.70;96.00;;;;;;5010816;28;20674;-61
2021/03/29 04:10:45;;;;;;;9.77;5.70;;;1.70;96.10;;;;;;5004503;28;20249;-62
2021/03/29 04:13:16;;;;;;;10.90;5.63;;;1.70;96.20;;;;;;4999824;28;20444;-61
2021/03/29 04:15:41;;;;;;;12.03;5.50;;;1.70;96.40;;;;;;5006295;28;20476;-61
2021/03/29 04:18:07;;;;;;;13.00;6.77;;;1.60;96.40;;;;;;5002196;28;20493;-61
2021/03/29 04:20:34;;;;;;;14.20;5.60;;;1.70;96.60;;;;;;4994007;28;20207;-61
2021/03/29 04:23:00;;;;;;;15.40;5.97;;;1.60;96.80;;;;;;4987473;28;20192;-61
2021/03/29 04:25:26;;;;;;;10.50;5.47;;;1.60;96.50;;;;;;5008063;28;20463;-62
2021/03/29 04:27:52;;;;;;;11.67;6.80;;;1.60;96.60;;;;;;5002806;28;20929;-62
2021/03/29 04:30:18;;;;;;;9.70;5.37;;;1.60;96.80;;;;;;5003357;28;20206;-62
2021/03/29 04:32:48;;;;;;;11.73;5.93;;;1.60;96.80;;;;;;5000513;28;20204;-61
2021/03/29 04:35:15;;;;;;;14.70;6.40;;;1.60;96.80;;;;;;5004753;28;20430;-61
2021/03/29 04:37:41;;;;;;;15.30;6.13;;;1.50;96.70;;;;;;4998367;28;20429;-61
2021/03/29 04:40:08;;;;;;;13.17;5.70;;;1.50;96.70;;;;;;5006221;28;21099;-61
2021/03/29 04:42:34;;;;;;;16.53;5.57;;;1.50;96.90;;;;;;5006585;28;20455;-62
2021/03/29 04:45:00;;;;;;;10.13;5.60;;;1.50;97.00;;;;;;5008786;28;20539;-61
2021/03/29 04:47:26;;;;;;;7.70;5.43;;;1.50;97.00;;;;;;5003881;28;20244;-62
2021/03/29 04:49:51;;;;;;;12.00;5.53;;;1.50;96.90;;;;;;5010076;28;20527;-61
2021/03/29 04:52:17;;;;;;;10.67;5.50;;;1.40;97.00;;;;;;5001234;28;20205;-61
2021/03/29 04:54:43;;;;;;;11.73;7.03;;;1.40;97.20;;;;;;5007551;28;20562;-61
2021/03/29 04:57:08;;;;;;;9.70;6.40;;;1.40;97.30;;;;;;5005564;28;21001;-61
2021/03/29 04:59:37;;;;;;;11.30;5.40;;;1.40;97.30;;;;;;5003311;28;20734;-61
2021/03/29 05:02:03;;;;;;;10.93;5.60;;;1.40;97.40;;;;;;5044803;22;20235;-61
2021/03/29 05:04:28;;;;;;;8.60;4.70;;;1.40;97.40;;;;;;5044760;28;20466;-62
2021/03/29 05:06:54;;;;;;;7.40;4.63;;;1.40;97.30;;;;;;5048681;28;20407;-59
2021/03/29 05:09:20;;;;;;;10.60;5.00;;;1.30;97.30;;;;;;5046427;28;20165;-62
2021/03/29 05:11:55;;;;;;;11.03;5.50;;;1.30;97.50;;;;;;5043188;28;20292;-62
2021/03/29 05:14:21;;;;;;;14.80;6.23;;;1.30;97.60;;;;;;5031192;28;20570;-61
2021/03/29 05:16:47;;;;;;;12.20;6.13;;;1.30;97.60;;;;;;5039239;28;20448;-60
2021/03/29 05:19:13;;;;;;;9.10;5.50;;;1.30;97.60;;;;;;5048874;28;20642;-60
2021/03/29 05:21:40;;;;;;;6.20;4.50;;;1.40;97.60;;;;;;5046938;28;20545;-61
2021/03/29 05:24:06;;;;;;;13.70;6.13;;;1.40;97.50;;;;;;5046221;28;21154;-59
2021/03/29 05:26:32;;;;;;;11.30;5.03;;;1.40;97.40;;;;;;5042724;28;20463;-62
2021/03/29 05:28:58;;;;;;;12.60;5.03;;;1.40;97.40;;;;;;5033720;28;20529;-61
2021/03/29 05:31:24;;;;;;;11.30;5.10;;;1.40;97.40;;;;;;5042426;28;20211;-61
2021/03/29 05:33:49;;;;;;;9.10;5.60;;;1.30;97.30;;;;;;5048365;28;20537;-62
2021/03/29 05:36:16;;;;;;;13.83;6.40;;;1.30;97.50;;;;;;5041488;28;20197;-61
2021/03/29 05:38:45;;;;;;;8.97;5.80;;;1.30;97.60;;;;;;5047836;28;20181;-60
2021/03/29 05:41:14;;;;;;;14.33;5.60;;;1.40;97.60;;;;;;5048531;28;20444;-62
2021/03/29 05:43:41;;;;;;;11.53;6.20;;;1.40;97.60;;;;;;5045350;28;20474;-61
2021/03/29 05:46:07;;;;;;;13.93;5.70;;;1.40;97.60;;;;;;5069714;28;20456;-62
2021/03/29 05:48:35;;;;;;;11.67;6.23;;;1.50;97.70;;;;;;5075361;28;20435;-60
2021/03/29 05:51:07;;;;;;;11.13;6.07;;;1.50;97.70;;;;;;5060940;28;20427;-62
2021/03/29 05:53:34;;;;;;;11.20;6.00;;;1.50;97.80;;;;;;5047159;28;20476;-60
2021/03/29 05:56:01;;;;;;;15.43;6.70;;;1.50;97.90;;;;;;5050069;28;20458;-60
2021/03/29 06:00:54;;;;;;;8.40;5.50;;;1.70;97.90;;;;;;5045740;28;20465;-61
2021/03/29 06:03:35;;;;;;;11.27;6.90;;;1.80;97.80;;;;;;5042993;28;20184;-61
2021/03/29 06:06:13;;;;;;;7.40;5.30;;;1.90;97.70;;;;;;5038991;28;20740;-58
2021/03/29 06:08:44;;;;;;;13.17;5.13;;;2.00;97.40;;;;;;5035006;28;20432;-61
2021/03/29 06:11:27;;;;;;;8.40;5.73;;;2.00;97.30;;;;;;5034888;28;20941;-60
2021/03/29 06:14:29;;;;;;;10.23;5.87;;;2.10;97.10;;;;;;5037082;28;20488;-60
2021/03/29 06:17:05;;;;;;;8.23;4.87;;;2.30;97.00;;;;;;5018230;28;20450;-58
2021/03/29 06:20:12;;;;;;;15.17;5.37;;;2.50;96.20;;;;;;5039372;28;20537;-60
2021/03/29 06:22:42;;;;;;;9.37;5.67;;;2.60;95.90;;;;;;5035843;28;20880;-60
2021/03/29 06:25:21;;;;;;;6.17;5.10;;;2.70;96.10;;;;;;5045138;28;20465;-61
2021/03/29 06:27:52;;;;;;;9.13;4.80;;;2.80;95.60;;;;;;5036918;28;20500;-59
2021/03/29 06:30:34;;;;;;;8.90;5.57;;;2.80;95.40;;;;;;5034311;28;20430;-59
2021/03/29 06:33:15;;;;;;;9.73;4.83;;;2.80;95.80;;;;;;5039599;28;20928;-60
2021/03/29 06:35:41;;;;;;;9.40;5.23;;;2.80;95.80;;;;;;5043879;28;20437;-61
2021/03/29 06:38:15;;;;;;;8.17;5.37;;;2.90;95.80;;;;;;5037937;28;20440;-59
2021/03/29 06:40:45;;;;;;;7.07;5.10;;;3.00;95.80;;;;;;5039317;28;20546;-62
2021/03/29 06:43:20;;;;;;;10.13;5.80;;;3.00;95.60;;;;;;5036277;28;20509;-61
2021/03/29 06:45:48;;;;;;;20.93;6.10;;;3.10;95.60;;;;;;5037502;28;20469;-61
2021/03/29 06:48:22;;;;;;;6.80;5.23;;;3.10;95.50;;;;;;5045605;28;20433;-59
2021/03/29 06:51:13;;;;;;;8.27;5.20;;;3.20;95.60;;;;;;5036996;28;20947;-61
2021/03/29 06:53:47;;;;;;;7.03;4.63;;;3.30;95.40;;;;;;5041226;28;20433;-60
2021/03/29 06:56:41;;;;;;;7.57;5.10;;;3.40;95.20;;;;;;5037645;28;20432;-58
2021/03/29 06:59:15;;;;;;;7.27;4.80;;;3.50;95.10;;;;;;5035764;28;20470;-62
2021/03/29 07:01:50;;;;;;;8.80;5.00;;;3.60;95.00;;;;;;5038516;28;20478;-61
2021/03/29 07:04:23;;;;;;;8.70;5.07;;;3.70;94.70;;;;;;5036956;28;20469;-60
2021/03/29 07:06:48;;;;;;;10.33;5.07;;;3.80;94.40;;;;;;5037968;28;21453;-63
2021/03/29 07:09:15;;;;;;;7.00;4.30;;;3.90;94.50;;;;;;5039248;28;20440;-60
2021/03/29 07:11:43;;;;;;;11.20;4.80;;;4.00;94.30;;;;;;5037843;28;20207;-60
2021/03/29 07:14:09;;;;;;;6.77;4.40;;;4.00;94.50;;;;;;5043149;28;20502;-57
2021/03/29 07:16:35;;;;;;;10.17;5.00;;;4.10;94.50;;;;;;5036117;28;20445;-60
2021/03/29 07:19:08;;;;;;;6.57;5.10;;;4.10;94.30;;;;;;5038652;28;20442;-58
2021/03/29 07:21:35;;;;;;;7.90;5.17;;;4.10;94.50;;;;;;5041638;28;20195;-59
2021/03/29 07:24:07;;;;;;;13.13;6.40;;;4.10;94.80;;;;;;5038416;28;20480;-57
2021/03/29 07:26:38;;;;;;;7.80;6.30;;;4.10;95.20;;;;;;5039800;28;20449;-59
2021/03/29 07:29:18;;;;;;;10.87;5.37;;;4.10;95.40;;;;;;5039479;28;20437;-59
2021/03/29 07:31:44;;;;;;;8.57;4.53;;;4.20;95.70;;;;;;5041914;28;20946;-59
2021/03/29 07:34:11;;;;;;;8.43;5.30;;;4.30;95.60;;;;;;5038228;28;20574;-59
2021/03/29 07:36:45;;;;;;;7.80;4.23;;;4.50;95.60;;;;;;5050334;28;20414;-61
2021/03/29 07:39:13;;;;;;;8.80;5.10;;;4.60;95.50;;;;;;5064711;28;20436;-59
2021/03/29 07:41:39;;;;;;;11.27;4.80;;;4.80;95.40;;;;;;5062269;28;20449;-58
2021/03/29 07:44:19;;;;;;;7.10;4.00;;;5.00;95.40;;;;;;5047303;28;20464;-59
2021/03/29 07:46:56;;;;;;;8.90;5.00;;;5.20;95.20;;;;;;5036545;28;20435;-58
2021/03/29 07:49:46;;;;;;;7.10;4.03;;;5.30;94.80;;;;;;5040525;28;20497;-59
2021/03/29 07:52:32;;;;;;;7.83;4.57;;;5.40;94.70;;;;;;5040075;28;20449;-57
2021/03/29 07:55:00;;;;;;;9.77;4.80;;;5.60;94.20;;;;;;5034227;28;20460;-59
2021/03/29 07:57:49;;;;;;;18.33;6.27;;;5.70;93.30;;;;;;5035654;28;20442;-60
2021/03/29 08:00:24;;;;;;;10.67;4.70;;;5.80;92.10;;;;;;5034467;28;20457;-59
2021/03/29 08:02:54;;;;;;;10.37;4.60;;;5.90;92.60;;;;;;5042051;28;20592;-59
2021/03/29 08:05:47;;;;;;;7.80;5.90;;;6.00;92.30;;;;;;5039727;28;20993;-60
2021/03/29 08:08:25;;;;;;;11.43;5.60;;;6.20;92.30;;;;;;5035108;28;20946;-60
2021/03/29 08:10:59;;;;;;;14.83;6.10;;;6.30;92.30;;;;;;5028656;28;20516;-59
2021/03/29 08:13:35;;;;;;;22.60;7.30;;;6.50;92.20;;;;;;5035883;28;20876;-58
2021/03/29 08:16:02;;;;;;;16.93;6.70;;;6.70;91.90;;;;;;5040970;28;20433;-60
2021/03/29 08:18:27;;;;;;;12.73;6.20;;;6.90;91.30;;;;;;5034271;28;20421;-59
2021/03/29 08:20:54;;;;;;;12.67;5.90;;;7.00;90.50;;;;;;5045681;28;20418;-58
2021/03/29 08:23:38;;;;;;;8.30;4.93;;;7.20;89.30;;;;;;5044278;28;20179;-57
2021/03/29 08:26:07;;;;;;;8.60;5.10;;;7.40;89.00;;;;;;5035374;28;20440;-57
2021/03/29 08:29:06;;;;;;;15.63;5.50;;;7.50;87.30;;;;;;5041457;28;20541;-58
2021/03/29 08:32:06;;;;;;;16.47;5.37;;;7.80;86.20;;;;;;5046000;28;20463;-57
2021/03/29 08:34:40;;;;;;;11.97;5.90;;;8.00;84.70;;;;;;5049094;28;20445;-61
2021/03/29 08:37:08;;;;;;;13.77;4.63;;;8.10;84.60;;;;;;5041121;28;20429;-57
2021/03/29 08:39:37;;;;;;;12.57;5.07;;;8.30;83.30;;;;;;5040489;28;20441;-60
2021/03/29 08:42:04;;;;;;;10.13;4.93;;;8.50;81.70;;;;;;5040119;28;20468;-58
2021/03/29 08:44:31;;;;;;;14.73;6.00;;;8.60;82.40;;;;;;5047512;28;20461;-61
2021/03/29 08:46:57;;;;;;;12.93;4.80;;;8.80;82.40;;;;;;5039021;28;20426;-62
2021/03/29 08:49:24;;;;;;;13.43;5.47;;;9.00;81.00;;;;;;5041367;28;20429;-62
2021/03/29 08:51:51;;;;;;;11.80;4.60;;;9.10;78.30;;;;;;5039553;28;20527;-59
2021/03/29 08:54:17;;;;;;;8.97;5.67;;;9.30;77.60;;;;;;5041505;28;20438;-57
2021/03/29 08:56:48;;;;;;;11.73;6.00;;;9.50;77.30;;;;;;5031956;28;20428;-60
2021/03/29 08:59:15;;;;;;;8.73;5.40;;;9.60;76.00;;;;;;5036470;28;20442;-60
2021/03/29 09:01:41;;;;;;;7.93;5.77;;;9.80;75.20;;;;;;5043235;28;20530;-60
2021/03/29 09:04:09;;;;;;;9.60;5.57;;;10.00;73.90;;;;;;5036685;28;20465;-62
2021/03/29 09:06:35;;;;;;;16.47;5.57;;;10.30;70.90;;;;;;5038702;28;20802;-59
2021/03/29 09:09:11;;;;;;;10.93;6.80;;;10.50;68.20;;;;;;5040669;28;20472;-58
2021/03/29 09:11:48;;;;;;;11.57;6.30;;;10.70;65.80;;;;;;5033908;28;20839;-58
2021/03/29 09:14:20;;;;;;;9.80;5.43;;;10.90;64.30;;;;;;5041504;28;20432;-60
2021/03/29 09:16:46;;;;;;;8.93;5.20;;;11.10;61.30;;;;;;5045604;28;20440;-60
2021/03/29 09:19:16;;;;;;;9.90;5.63;;;11.30;58.20;;;;;;5045722;28;20869;-61
2021/03/29 09:21:43;;;;;;;14.13;5.53;;;11.50;56.40;;;;;;5045775;28;20471;-61
2021/03/29 09:24:23;;;;;;;8.43;4.93;;;11.70;56.30;;;;;;5047578;28;20464;-60
2021/03/29 09:27:07;;;;;;;11.50;4.93;;;11.90;54.80;;;;;;5045621;28;20433;-61
2021/03/29 09:29:42;;;;;;;7.63;4.60;;;12.10;51.20;;;;;;5040649;28;20478;-59
2021/03/29 09:32:15;;;;;;;7.97;4.47;;;12.30;50.40;;;;;;5045980;28;20531;-60
2021/03/29 09:34:45;;;;;;;12.77;4.13;;;12.50;50.50;;;;;;5044901;28;20514;-61
2021/03/29 09:37:21;;;;;;;5.13;3.20;;;12.70;48.50;;;;;;5037123;28;20790;-60
2021/03/29 09:40:08;;;;;;;5.07;3.20;;;12.90;47.40;;;;;;5035297;28;20448;-60
2021/03/29 09:42:38;;;;;;;6.10;2.90;;;13.10;45.90;;;;;;5042291;28;20820;-57
2021/03/29 09:45:11;;;;;;;8.17;2.63;;;13.30;42.30;;;;;;5040093;28;20464;-60
2021/03/29 09:47:37;;;;;;;5.53;3.00;;;13.40;39.30;;;;;;5036544;28;20462;-59
2021/03/29 09:50:05;;;;;;;6.70;3.27;;;13.60;38.10;;;;;;5044162;28;20425;-59
2021/03/29 09:52:40;;;;;;;10.30;3.17;;;13.70;37.80;;;;;;5044821;28;20560;-59
2021/03/29 09:55:08;;;;;;;16.90;3.00;;;13.80;39.40;;;;;;5039800;28;20440;-59
2021/03/29 09:57:43;;;;;;;8.03;3.03;;;14.00;40.20;;;;;;5041248;28;20425;-59
2021/03/29 10:00:19;;;;;;;9.70;3.00;;;14.20;41.20;;;;;;5041744;28;20984;-59
2021/03/29 10:02:47;;;;;;;8.63;2.60;;;14.40;41.50;;;;;;5041519;28;20525;-58
2021/03/29 10:05:14;;;;;;;5.80;2.77;;;14.50;41.10;;;;;;5041090;28;20544;-55
2021/03/29 10:07:58;;;;;;;2.90;2.20;;;14.70;40.80;;;;;;5044596;28;20942;-59
2021/03/29 10:10:29;;;;;;;5.40;2.67;;;14.80;38.40;;;;;;5039445;28;20432;-57
2021/03/29 10:13:12;;;;;;;7.40;2.23;;;14.90;37.40;;;;;;5033565;28;20441;-58
2021/03/29 10:15:40;;;;;;;3.73;2.07;;;15.00;40.60;;;;;;5042956;28;21154;-59
2021/03/29 10:18:13;;;;;;;7.93;2.70;;;15.20;41.10;;;;;;5047654;28;20449;-57
2021/03/29 10:20:42;;;;;;;6.90;2.10;;;15.40;40.10;;;;;;5046618;28;20425;-57
2021/03/29 10:23:28;;;;;;;7.37;2.30;;;15.50;39.90;;;;;;5037158;28;20457;-56
2021/03/29 10:26:11;;;;;;;2.80;2.43;;;15.70;38.20;;;;;;5043881;28;20449;-60
2021/03/29 10:28:38;;;;;;;8.20;3.33;;;15.80;36.70;;;;;;5045282;28;20467;-57
2021/03/29 10:31:04;;;;;;;3.43;2.10;;;15.90;36.60;;;;;;5037777;28;20444;-59
2021/03/29 10:33:30;;;;;;;2.83;2.27;;;16.00;35.70;;;;;;5046858;28;20417;-60
2021/03/29 10:35:56;;;;;;;5.30;2.63;;;16.10;35.30;;;;;;5041652;28;20429;-59
2021/03/29 10:38:22;;;;;;;6.13;2.97;;;16.30;35.70;;;;;;5048576;28;20172;-58
2021/03/29 10:40:48;;;;;;;4.80;2.30;;;16.40;35.70;;;;;;5047945;28;20163;-58
2021/03/29 10:43:14;;;;;;;4.20;2.50;;;16.50;34.80;;;;;;5038660;28;20438;-58
2021/03/29 10:45:40;;;;;;;4.20;2.00;;;16.60;34.20;;;;;;5043537;28;20464;-58
2021/03/29 10:48:06;;;;;;;3.77;2.87;;;16.70;34.20;;;;;;5041593;28;20267;-57
2021/03/29 10:50:32;;;;;;;6.00;2.53;;;16.80;34.00;;;;;;5039572;28;20267;-56
2021/03/29 10:52:58;;;;;;;6.20;2.57;;;16.90;33.80;;;;;;5045664;28;20781;-59
2021/03/29 10:55:25;;;;;;;2.80;2.23;;;17.00;33.20;;;;;;5045347;28;20444;-59
2021/03/29 10:57:51;;;;;;;7.93;3.17;;;17.10;32.90;;;;;;5043757;28;20641;-58
2021/03/29 11:00:17;;;;;;;4.77;2.30;;;17.20;32.80;;;;;;5040115;28;20491;-56
2021/03/29 11:02:42;;;;;;;4.50;2.40;;;17.40;30.50;;;;;;5039206;22;20229;-64
2021/03/29 11:05:08;;;;;;;4.67;2.43;;;17.50;31.00;;;;;;5002875;28;20992;-63
2021/03/29 11:07:34;;;;;;;3.53;2.33;;;17.60;31.50;;;;;;5005247;28;20211;-63
2021/03/29 11:10:00;;;;;;;5.53;2.37;;;17.80;31.50;;;;;;5000778;28;20440;-64
2021/03/29 11:12:26;;;;;;;4.83;2.37;;;17.90;32.20;;;;;;5010893;28;20196;-63
2021/03/29 11:14:52;;;;;;;6.00;2.47;;;18.00;31.20;;;;;;5003146;28;20181;-64
2021/03/29 11:17:20;;;;;;;4.60;2.20;;;18.10;31.70;;;;;;5006372;28;20465;-68
2021/03/29 11:19:46;;;;;;;3.10;2.17;;;18.20;31.90;;;;;;5003903;28;20260;-65
2021/03/29 11:22:11;;;;;;;3.40;2.13;;;18.40;31.20;;;;;;5004175;28;20546;-65
2021/03/29 11:24:37;;;;;;;2.93;2.17;;;18.50;29.50;;;;;;5007022;28;20668;-63
2021/03/29 11:27:03;;;;;;;7.73;2.33;;;18.50;28.60;;;;;;5012736;28;20192;-65
2021/03/29 11:29:29;;;;;;;4.83;2.80;;;18.60;30.40;;;;;;5001177;28;20193;-64
2021/03/29 11:31:55;;;;;;;3.30;2.47;;;18.80;30.80;;;;;;5000274;28;20454;-63
2021/03/29 11:34:20;;;;;;;4.67;2.13;;;19.00;30.00;;;;;;5001458;28;20509;-64
2021/03/29 11:36:46;;;;;;;3.87;2.57;;;19.10;29.50;;;;;;5001211;28;20264;-65
2021/03/29 11:39:12;;;;;;;12.00;2.80;;;19.30;29.10;;;;;;4996276;28;20184;-65
2021/03/29 11:41:39;;;;;;;4.33;2.53;;;19.40;29.50;;;;;;4994741;28;20250;-65
2021/03/29 11:44:05;;;;;;;4.50;2.27;;;19.60;29.60;;;;;;5001166;28;20486;-67
2021/03/29 11:46:31;;;;;;;7.10;2.47;;;19.70;29.70;;;;;;5002832;28;20465;-64
2021/03/29 11:48:57;;;;;;;3.00;2.40;;;19.90;29.30;;;;;;5002513;28;20470;-65
2021/03/29 11:51:23;;;;;;;5.40;2.30;;;20.00;28.70;;;;;;4997056;28;20211;-59
2021/03/29 11:53:49;;;;;;;2.47;2.23;;;20.20;28.60;;;;;;4995880;28;20196;-64
2021/03/29 11:56:15;;;;;;;5.90;3.10;;;20.30;28.90;;;;;;5000566;28;20183;-65
2021/03/29 11:58:40;;;;;;;5.37;2.80;;;20.40;27.80;;;;;;5004284;28;20194;-63
2021/03/29 12:03:58;;;;;;;8.90;2.80;;;20.60;30.80;;;;;;4979058;28;20673;-62
2021/03/29 12:06:40;;;;;;;4.87;2.93;;;20.90;31.50;;;;;;5003947;28;20448;-63
2021/03/29 12:11:44;;;;;;;3.10;2.70;;;21.10;30.50;;;;;;4996040;28;20447;-61
2021/03/29 12:12:15;;;;;;;4.63;2.90;;;21.20;29.80;;;;;;4985002;28;20542;-62
2021/03/29 12:14:41;;;;;;;3.00;2.33;;;21.40;31.60;;;;;;4989186;28;20420;-61
2021/03/29 12:17:10;;;;;;;3.73;2.70;;;21.50;28.50;;;;;;4995194;28;20427;-62
2021/03/29 12:19:37;;;;;;;6.10;2.57;;;21.50;28.00;;;;;;4996682;28;20192;-62
2021/03/29 12:22:27;;;;;;;5.50;2.77;;;21.50;29.80;;;;;;4993752;28;21001;-62
2021/03/29 12:24:56;;;;;;;5.00;3.50;;;21.70;30.70;;;;;;4991522;28;20451;-62
2021/03/29 12:27:23;;;;;;;10.50;3.63;;;21.80;29.60;;;;;;4992897;28;20502;-62
2021/03/29 12:29:49;;;;;;;5.30;3.10;;;21.90;30.40;;;;;;4994149;28;20425;-62
2021/03/29 12:32:18;;;;;;;3.50;3.10;;;22.00;30.70;;;;;;4987406;28;20447;-63
2021/03/29 12:34:49;;;;;;;5.97;3.30;;;22.00;29.30;;;;;;4998996;28;21219;-63
2021/03/29 12:37:17;;;;;;;4.30;2.70;;;22.00;29.00;;;;;;4992212;28;20455;-61
2021/03/29 12:39:47;;;;;;;3.50;2.80;;;21.90;28.90;;;;;;5000857;28;20455;-64
2021/03/29 12:42:16;;;;;;;8.93;3.40;;;21.90;29.50;;;;;;4995670;28;20472;-64
2021/03/29 12:44:42;;;;;;;8.30;3.40;;;22.00;28.10;;;;;;4999166;28;20543;-63
2021/03/29 12:47:11;;;;;;;7.70;3.00;;;21.90;28.60;;;;;;4994109;28;20432;-63
2021/03/29 12:49:38;;;;;;;8.23;3.43;;;21.90;29.80;;;;;;4994239;28;20442;-63
2021/03/29 12:52:04;;;;;;;6.53;3.60;;;21.90;28.90;;;;;;4996865;28;20997;-64
2021/03/29 12:54:32;;;;;;;4.83;3.40;;;21.90;29.00;;;;;;5002975;28;20907;-64
2021/03/29 12:56:59;;;;;;;7.87;4.20;;;22.00;29.80;;;;;;4999365;28;20586;-63
2021/03/29 12:59:28;;;;;;;7.70;3.20;;;22.10;30.70;;;;;;4995212;28;20431;-63
2021/03/29 13:01:55;;;;;;;13.90;4.73;;;22.20;31.00;;;;;;4992975;28;20552;-63
2021/03/29 13:04:54;;;;;;;6.47;3.50;;;22.30;29.80;;;;;;4998921;28;20956;-63
2021/03/29 13:12:09;;;;;;;7.87;4.23;;;22.20;30.70;;;;;;5002549;28;20871;-63
2021/03/29 13:14:49;;;;;;;5.37;3.50;;;22.30;29.90;;;;;;4998931;28;20436;-63